Time,TemperatureF,DewpointF,PressureIn,WindDirection,WindDirectionDegrees,WindSpeedMPH,WindSpeedGustMPH,Humidity,HourlyPrecipIn,Conditions,Clouds,dailyrainin,SoftwareType,DateUTC
2013-07-29 00:09:00,55.8,50.0,30.27,South,171,0.0,7.0,82,0.00,,,0.00,weatherlink.com 1.10,2013-07-29 06:09:00,
2013-07-29 00:24:00,55.9,51.0,30.27,SE,138,0.0,3.0,82,0.00,,,0.00,weatherlink.com 1.10,2013-07-29 06:24:00,
2013-07-29 00:39:00,55.8,51.0,30.28,SE,138,4.0,5.0,83,0.00,,,0.00,weatherlink.com 1.10,2013-07-29 06:39:00,
2013-07-29 00:54:00,55.6,50.0,30.27,SSW,192,7.0,7.0,82,0.00,,,0.00,weatherlink.com 1.10,2013-07-29 06:54:00,
2013-07-29 01:09:00,55.7,50.0,30.27,SSW,212,7.0,12.0,82,0.00,,,0.00,weatherlink.com 1.10,2013-07-29 07:09:00,
2013-07-29 01:24:00,55.9,50.0,30.27,SSE,153,8.0,8.0,81,0.00,,,0.00,weatherlink.com 1.10,2013-07-29 07:24:00,
2013-07-29 01:39:00,56.0,51.0,30.27,SE,140,0.0,3.0,82,0.00,,,0.00,weatherlink.com 1.10,2013-07-29 07:39:00,
2013-07-29 01:54:00,55.9,51.0,30.27,SE,140,0.0,0.0,84,0.00,,,0.00,weatherlink.com 1.10,2013-07-29 07:54:00,
2013-07-29 02:09:00,55.4,51.0,30.28,SW,235,6.0,8.0,84,0.00,,,0.00,weatherlink.com 1.10,2013-07-29 08:09:00,
2013-07-29 02:24:00,55.3,51.0,30.30,West,265,6.0,12.0,85,0.01,,,0.01,weatherlink.com 1.10,2013-07-29 08:24:00,
2013-07-29 02:39:00,54.7,51.0,30.30,WNW,290,5.0,7.0,87,0.01,,,0.01,weatherlink.com 1.10,2013-07-29 08:39:00,
2013-07-29 02:54:00,54.1,51.0,30.30,North,360,0.0,5.0,90,0.02,,,0.02,weatherlink.com 1.10,2013-07-29 08:54:00,
2013-07-29 03:09:00,53.8,52.0,30.30,North,355,0.0,7.0,93,0.02,,,0.02,weatherlink.com 1.10,2013-07-29 09:09:00,
2013-07-29 03:25:00,53.2,52.0,30.30,NNW,345,8.0,9.0,94,0.01,,,0.02,weatherlink.com 1.10,2013-07-29 09:25:00,
2013-07-29 03:40:00,53.0,52.0,30.31,NW,323,4.0,9.0,95,0.01,,,0.02,weatherlink.com 1.10,2013-07-29 09:40:00,
2013-07-29 03:55:00,52.9,52.0,30.31,WNW,303,3.0,7.0,96,0.02,,,0.04,weatherlink.com 1.10,2013-07-29 09:55:00,
2013-07-29 04:10:00,52.9,52.0,30.31,NW,313,0.0,3.0,96,0.10,,,0.12,weatherlink.com 1.10,2013-07-29 10:10:00,
2013-07-29 04:25:00,52.9,52.0,30.31,NW,313,0.0,0.0,96,0.13,,,0.15,weatherlink.com 1.10,2013-07-29 10:25:00,
2013-07-29 04:40:00,52.8,52.0,30.30,SE,138,4.0,9.0,96,0.14,,,0.16,weatherlink.com 1.10,2013-07-29 10:40:00,
2013-07-29 04:55:00,52.8,52.0,30.30,ESE,123,5.0,8.0,96,0.11,,,0.16,weatherlink.com 1.10,2013-07-29 10:55:00,
2013-07-29 05:25:00,52.4,51.0,30.29,SE,135,0.0,9.0,96,0.01,,,0.16,weatherlink.com 1.10,2013-07-29 11:25:00,
2013-07-29 05:40:00,52.1,51.0,30.28,South,181,5.0,12.0,96,0.00,,,0.16,weatherlink.com 1.10,2013-07-29 11:40:00,
2013-07-29 05:55:00,52.1,51.0,30.29,SSW,195,4.0,8.0,95,0.00,,,0.16,weatherlink.com 1.10,2013-07-29 11:55:00,
2013-07-29 06:10:00,52.1,51.0,30.29,South,187,3.0,10.0,95,0.00,,,0.16,weatherlink.com 1.10,2013-07-29 12:10:00,
2013-07-29 07:25:00,52.7,52.0,30.30,North,11,0.0,2.0,96,0.00,,,0.16,weatherlink.com 1.10,2013-07-29 13:25:00,
2013-07-29 07:55:00,54.1,53.0,30.31,North,11,0.0,3.0,97,0.00,,,0.16,weatherlink.com 1.10,2013-07-29 13:55:00,
2013-07-29 08:10:00,54.8,54.0,30.32,NNW,337,0.0,5.0,96,0.00,,,0.16,weatherlink.com 1.10,2013-07-29 14:10:00,
2013-07-29 08:25:00,55.0,54.0,30.32,NNE,26,0.0,5.0,95,0.00,,,0.16,weatherlink.com 1.10,2013-07-29 14:25:00,
2013-07-29 08:55:00,55.3,54.0,30.33,NNE,26,0.0,0.0,94,0.00,,,0.16,weatherlink.com 1.10,2013-07-29 14:55:00,
2013-07-29 09:10:00,55.8,53.0,30.33,NNE,17,0.0,4.0,91,0.00,,,0.16,weatherlink.com 1.10,2013-07-29 15:10:00,
2013-07-29 09:25:00,56.4,54.0,30.34,NNW,338,1.0,4.0,92,0.00,,,0.16,weatherlink.com 1.10,2013-07-29 15:25:00,
2013-07-29 09:40:00,56.1,54.0,30.34,NW,321,0.0,4.0,91,0.00,,,0.16,weatherlink.com 1.10,2013-07-29 15:40:00,
2013-07-29 09:55:00,58.6,55.0,30.34,NE,51,2.0,2.0,88,0.00,,,0.16,weatherlink.com 1.10,2013-07-29 15:55:00,
2013-07-29 10:25:00,60.0,55.0,30.35,ESE,106,0.0,4.0,84,0.00,,,0.16,weatherlink.com 1.10,2013-07-29 16:25:00,
2013-07-29 10:40:00,60.5,54.0,30.35,ESE,116,0.0,4.0,78,0.00,,,0.16,weatherlink.com 1.10,2013-07-29 16:40:00,
2013-07-29 10:55:00,64.0,56.0,30.35,ESE,121,3.0,7.0,75,0.00,,,0.16,weatherlink.com 1.10,2013-07-29 16:55:00,
2013-07-29 11:25:00,66.6,55.0,30.35,East,91,3.0,7.0,67,0.00,,,0.16,weatherlink.com 1.10,2013-07-29 17:25:00,
2013-07-29 11:40:00,68.2,56.0,30.35,ENE,77,2.0,9.0,66,0.00,,,0.16,weatherlink.com 1.10,2013-07-29 17:40:00,
2013-07-29 11:55:00,67.7,56.0,30.35,NE,52,2.0,5.0,67,0.00,,,0.16,weatherlink.com 1.10,2013-07-29 17:55:00,
2013-07-29 12:10:00,66.7,54.0,30.35,NNW,340,0.0,6.0,65,0.00,,,0.16,weatherlink.com 1.10,2013-07-29 18:10:00,
2013-07-29 12:27:00,65.8,55.0,30.35,ESE,112,0.0,0.0,68,0.00,,,0.16,weatherlink.com 1.10,2013-07-29 18:27:00,
2013-07-29 12:56:00,65.4,55.0,30.35,NE,43,0.0,1.0,69,0.00,,,0.16,weatherlink.com 1.10,2013-07-29 18:56:00,
2013-07-29 13:11:00,68.1,56.0,30.35,WSW,240,7.0,10.0,65,0.00,,,0.16,weatherlink.com 1.10,2013-07-29 19:11:00,
2013-07-29 13:26:00,68.2,52.0,30.35,West,262,4.0,14.0,56,0.00,,,0.16,weatherlink.com 1.10,2013-07-29 19:26:00,
2013-07-29 13:41:00,67.4,51.0,30.35,SSW,200,6.0,10.0,55,0.00,,,0.16,weatherlink.com 1.10,2013-07-29 19:41:00,
2013-07-29 14:11:00,70.3,52.0,30.34,SSW,205,0.0,8.0,52,0.00,,,0.16,weatherlink.com 1.10,2013-07-29 20:11:00,
2013-07-29 14:26:00,71.6,53.0,30.34,NE,50,4.0,9.0,53,0.00,,,0.16,weatherlink.com 1.10,2013-07-29 20:26:00,
2013-07-29 14:41:00,69.7,54.0,30.35,West,274,4.0,9.0,58,0.00,,,0.16,weatherlink.com 1.10,2013-07-29 20:41:00,
2013-07-29 14:56:00,68.5,50.0,30.35,WSW,242,3.0,13.0,52,0.00,,,0.16,weatherlink.com 1.10,2013-07-29 20:56:00,
2013-07-29 15:11:00,67.0,49.0,30.36,SW,221,8.0,13.0,53,0.00,,,0.16,weatherlink.com 1.10,2013-07-29 21:11:00,
2013-07-29 15:26:00,66.4,51.0,30.36,South,190,8.0,13.0,58,0.00,,,0.16,weatherlink.com 1.10,2013-07-29 21:26:00,
2013-07-29 15:56:00,67.0,48.0,30.36,SE,130,6.0,10.0,50,0.00,,,0.16,weatherlink.com 1.10,2013-07-29 21:56:00,
2013-07-29 16:41:00,67.3,47.0,30.35,SE,142,13.0,23.0,49,0.00,,,0.16,weatherlink.com 1.10,2013-07-29 22:41:00,
2013-07-29 16:56:00,67.3,47.0,30.35,South,191,6.0,21.0,48,0.00,,,0.16,weatherlink.com 1.10,2013-07-29 22:56:00,
2013-07-29 17:26:00,69.4,47.0,30.35,SE,128,6.0,15.0,45,0.00,,,0.16,weatherlink.com 1.10,2013-07-29 23:26:00,
2013-07-29 19:26:00,62.3,50.0,30.42,NNE,17,4.0,12.0,65,0.02,,,0.18,weatherlink.com 1.10,2013-07-30 01:26:00,
2013-07-29 20:11:00,52.7,49.0,30.42,North,360,3.0,9.0,88,0.04,,,0.20,weatherlink.com 1.10,2013-07-30 02:11:00,
2013-07-29 20:26:00,52.2,49.0,30.41,SSE,150,4.0,8.0,88,0.02,,,0.20,weatherlink.com 1.10,2013-07-30 02:26:00,
2013-07-29 20:41:00,52.4,49.0,30.41,SSW,196,4.0,9.0,88,0.00,,,0.20,weatherlink.com 1.10,2013-07-30 02:41:00,
2013-07-29 20:56:00,52.0,49.0,30.41,North,360,7.0,13.0,89,0.00,,,0.20,weatherlink.com 1.10,2013-07-30 02:56:00,
2013-07-29 21:11:00,51.5,49.0,30.41,SSW,208,7.0,13.0,90,0.00,,,0.20,weatherlink.com 1.10,2013-07-30 03:11:00,
2013-07-29 21:26:00,51.6,49.0,30.40,SSW,206,3.0,10.0,89,0.00,,,0.20,weatherlink.com 1.10,2013-07-30 03:26:00,
2013-07-29 21:41:00,52.0,49.0,30.40,SSW,201,4.0,10.0,88,0.00,,,0.20,weatherlink.com 1.10,2013-07-30 03:41:00,
2013-07-29 21:56:00,52.2,49.0,30.41,SSW,206,2.0,9.0,87,0.00,,,0.20,weatherlink.com 1.10,2013-07-30 03:56:00,
2013-07-29 22:11:00,52.2,49.0,30.40,SW,215,8.0,12.0,87,0.00,,,0.20,weatherlink.com 1.10,2013-07-30 04:11:00,
2013-07-29 22:26:00,52.4,48.0,30.41,South,178,7.0,11.0,86,0.00,,,0.20,weatherlink.com 1.10,2013-07-30 04:26:00,
2013-07-29 22:41:00,54.1,49.0,30.41,South,184,9.0,15.0,83,0.00,,,0.20,weatherlink.com 1.10,2013-07-30 04:41:00,
2013-07-29 22:56:00,55.0,49.0,30.40,SSE,154,6.0,14.0,79,0.00,,,0.20,weatherlink.com 1.10,2013-07-30 04:56:00,
2013-07-29 23:11:00,55.1,50.0,30.41,NNW,342,0.0,7.0,82,0.00,,,0.20,weatherlink.com 1.10,2013-07-30 05:11:00,
2013-07-29 23:26:00,54.2,49.0,30.41,WSW,242,9.0,12.0,82,0.00,,,0.20,weatherlink.com 1.10,2013-07-30 05:26:00,
2013-07-29 23:41:00,54.1,50.0,30.45,WNW,292,7.0,23.0,85,0.06,,,0.26,weatherlink.com 1.10,2013-07-30 05:41:00,